Time;durP1;ratioP1;P1;durP2;ratioP2;P2;SDS_P1;SDS_P2;PMS_P1;PMS_P2;Temp;Humidity;BMP_temperature;BMP_pressure;BME280_temperature;BME280_humidity;BME280_pressure;Samples;Min_cycle;Max_cycle;Signal;HPM_P1;HPM_P2
2023/11/26 00:00:12;;;;;;;;;;;18.80;49.70;;;;;;1523615;76;731;-60
2023/11/26 00:02:14;;;;;;;;;;;18.80;49.70;;;;;;1519841;76;1103;-61
2023/11/26 00:04:16;;;;;;;;;;;18.90;49.70;;;;;;1509439;76;1938;-62
2023/11/26 00:06:18;;;;;;;;;;;18.90;49.70;;;;;;1523116;76;717;-62
2023/11/26 00:08:20;;;;;;;;;;;18.80;49.70;;;;;;1523367;76;874;-61
2023/11/26 00:10:21;;;;;;;;;;;18.90;49.70;;;;;;1520592;76;628;-61
2023/11/26 00:12:24;;;;;;;;;;;18.90;49.70;;;;;;1523086;76;1082;-61
2023/11/26 00:14:25;;;;;;;;;;;18.90;49.80;;;;;;1521229;76;746;-61
2023/11/26 00:16:27;;;;;;;;;;;18.80;49.70;;;;;;1519168;76;747;-62
2023/11/26 00:18:29;;;;;;;;;;;18.80;49.70;;;;;;1508050;76;674;-60
2023/11/26 00:20:31;;;;;;;;;;;18.80;49.70;;;;;;1512880;76;723;-60
2023/11/26 00:22:33;;;;;;;;;;;18.80;49.70;;;;;;1510979;76;1143;-61
2023/11/26 00:24:35;;;;;;;;;;;18.90;49.80;;;;;;1516960;76;1942;-60
2023/11/26 00:26:37;;;;;;;;;;;18.90;49.80;;;;;;1519060;76;717;-60
2023/11/26 00:28:39;;;;;;;;;;;18.90;49.80;;;;;;1514143;76;724;-61
2023/11/26 00:30:41;;;;;;;;;;;18.90;49.90;;;;;;1509977;76;1364;-60
2023/11/26 00:32:43;;;;;;;;;;;18.80;49.70;;;;;;1519219;76;1151;-60
2023/11/26 00:34:45;;;;;;;;;;;18.90;49.80;;;;;;1521100;76;782;-60
2023/11/26 00:36:47;;;;;;;;;;;18.80;49.70;;;;;;1521278;76;718;-62
2023/11/26 00:38:49;;;;;;;;;;;18.90;49.90;;;;;;1523046;76;748;-62
2023/11/26 00:40:51;;;;;;;;;;;18.80;49.90;;;;;;1510988;76;648;-64
2023/11/26 00:42:53;;;;;;;;;;;18.90;49.90;;;;;;1509911;76;1142;-63
2023/11/26 00:44:55;;;;;;;;;;;18.90;50.00;;;;;;1520559;76;1944;-62
2023/11/26 00:46:57;;;;;;;;;;;18.80;49.80;;;;;;1512685;76;700;-62
2023/11/26 00:49:18;;;;;;;;;;;18.90;50.00;;;;;;1508462;76;811;-63
2023/11/26 00:51:20;;;;;;;;;;;18.90;50.00;;;;;;1556738;75;687;-61
2023/11/26 00:53:22;;;;;;;;;;;18.80;49.80;;;;;;1542316;76;1202;-61
2023/11/26 00:55:24;;;;;;;;;;;18.90;50.00;;;;;;1528730;76;745;-63
2023/11/26 00:57:27;;;;;;;;;;;18.80;49.90;;;;;;1533634;76;932;-61
2023/11/26 00:59:29;;;;;;;;;;;18.90;50.00;;;;;;1530555;76;675;-63
2023/11/26 01:01:32;;;;;;;;;;;18.80;49.90;;;;;;1537014;76;781;-61
2023/11/26 01:03:34;;;;;;;;;;;18.80;49.90;;;;;;1527967;76;1945;-61
2023/11/26 01:05:35;;;;;;;;;;;18.80;49.80;;;;;;1536140;76;763;-61
2023/11/26 01:07:37;;;;;;;;;;;18.90;50.00;;;;;;1533896;76;775;-62
2023/11/26 01:09:39;;;;;;;;;;;18.80;49.90;;;;;;1533129;76;727;-61
2023/11/26 01:11:42;;;;;;;;;;;18.80;49.90;;;;;;1532558;76;691;-63
2023/11/26 01:13:44;;;;;;;;;;;18.80;49.90;;;;;;1532334;76;1331;-61
2023/11/26 01:15:46;;;;;;;;;;;18.80;49.90;;;;;;1531112;76;691;-61
2023/11/26 01:17:48;;;;;;;;;;;18.80;49.90;;;;;;1533257;76;747;-61
2023/11/26 01:19:50;;;;;;;;;;;18.80;50.00;;;;;;1533496;76;791;-62
2023/11/26 01:21:51;;;;;;;;;;;18.80;50.00;;;;;;1533186;76;779;-61
2023/11/26 01:23:53;;;;;;;;;;;18.90;50.10;;;;;;1528551;76;1945;-62
2023/11/26 01:25:55;;;;;;;;;;;18.80;50.00;;;;;;1533019;76;1302;-62
2023/11/26 01:27:57;;;;;;;;;;;18.80;50.00;;;;;;1501866;78;794;-62
2023/11/26 01:29:59;;;;;;;;;;;18.80;50.00;;;;;;1540768;76;742;-64
2023/11/26 01:32:01;;;;;;;;;;;18.80;50.00;;;;;;1545936;76;756;-62
2023/11/26 01:34:03;;;;;;;;;;;18.80;50.00;;;;;;1567895;75;661;-62
2023/11/26 01:36:11;;;;;;;;;;;18.80;50.00;;;;;;1549574;76;693;-62
2023/11/26 01:38:13;;;;;;;;;;;18.80;50.10;;;;;;1537951;76;894;-64
2023/11/26 01:40:15;;;;;;;;;;;18.80;50.10;;;;;;1561661;75;750;-61
2023/11/26 01:42:17;;;;;;;;;;;18.80;50.10;;;;;;1575735;75;1135;-61
2023/11/26 01:44:19;;;;;;;;;;;18.80;50.20;;;;;;1569657;75;1907;-61
2023/11/26 01:46:21;;;;;;;;;;;18.80;50.10;;;;;;1569333;75;813;-61
2023/11/26 01:48:23;;;;;;;;;;;18.80;50.10;;;;;;1562570;75;677;-62
2023/11/26 01:50:25;;;;;;;;;;;18.80;50.20;;;;;;1540581;76;789;-62
2023/11/26 01:52:27;;;;;;;;;;;18.80;50.10;;;;;;1557205;75;1128;-62
2023/11/26 01:54:29;;;;;;;;;;;18.80;50.10;;;;;;1539906;76;672;-62
2023/11/26 01:56:31;;;;;;;;;;;18.80;50.20;;;;;;1555179;75;842;-63
2023/11/26 01:58:33;;;;;;;;;;;18.80;50.10;;;;;;1535670;76;710;-61
2023/11/26 02:00:35;;;;;;;;;;;18.80;50.20;;;;;;1564254;75;731;-64
2023/11/26 02:02:37;;;;;;;;;;;18.80;50.10;;;;;;1528372;75;1187;-61
2023/11/26 02:04:39;;;;;;;;;;;18.80;50.20;;;;;;1562657;75;1915;-62
2023/11/26 02:06:40;;;;;;;;;;;18.80;50.20;;;;;;1560487;75;735;-62
2023/11/26 02:08:42;;;;;;;;;;;18.80;50.10;;;;;;1568728;75;717;-61
2023/11/26 02:10:44;;;;;;;;;;;18.80;50.10;;;;;;1570145;75;713;-62
2023/11/26 02:13:03;;;;;;;;;;;18.80;50.20;;;;;;1537001;76;1147;-61
2023/11/26 02:15:06;;;;;;;;;;;18.80;50.20;;;;;;1559411;75;765;-61
2023/11/26 02:17:08;;;;;;;;;;;18.80;50.30;;;;;;1558187;75;704;-61
2023/11/26 02:19:12;;;;;;;;;;;18.80;50.20;;;;;;1554590;75;769;-62
2023/11/26 02:21:13;;;;;;;;;;;18.80;50.40;;;;;;1559096;75;1910;-61
2023/11/26 02:23:15;;;;;;;;;;;18.80;50.20;;;;;;1549043;75;1393;-61
2023/11/26 02:25:20;;;;;;;;;;;18.80;50.20;;;;;;1553957;75;1931;-61
2023/11/26 02:27:21;;;;;;;;;;;18.70;50.30;;;;;;1557495;75;1691;-61
2023/11/26 02:29:23;;;;;;;;;;;18.80;50.20;;;;;;1553844;75;752;-59
2023/11/26 02:31:25;;;;;;;;;;;18.80;50.20;;;;;;1554129;75;705;-59
2023/11/26 02:33:27;;;;;;;;;;;18.80;50.20;;;;;;1553338;75;1126;-59
2023/11/26 02:35:29;;;;;;;;;;;18.80;50.30;;;;;;1539557;76;756;-59
2023/11/26 02:37:31;;;;;;;;;;;18.70;50.30;;;;;;1552202;75;626;-60
2023/11/26 02:39:33;;;;;;;;;;;18.80;50.40;;;;;;1562601;75;671;-60
2023/11/26 02:41:35;;;;;;;;;;;18.70;50.30;;;;;;1553570;75;700;-60
2023/11/26 02:43:37;;;;;;;;;;;18.80;50.30;;;;;;1560824;75;1069;-60
2023/11/26 02:45:40;;;;;;;;;;;18.80;50.30;;;;;;1552882;75;1945;-61
2023/11/26 02:47:43;;;;;;;;;;;18.70;50.20;;;;;;1560663;75;878;-60
2023/11/26 02:49:45;;;;;;;;;;;18.70;50.30;;;;;;1554687;75;817;-62
2023/11/26 02:51:47;;;;;;;;;;;18.80;50.30;;;;;;1561325;75;828;-65
2023/11/26 02:53:49;;;;;;;;;;;18.70;50.30;;;;;;1552700;75;1146;-62
2023/11/26 02:55:51;;;;;;;;;;;18.80;50.30;;;;;;1558871;75;657;-63
2023/11/26 02:57:53;;;;;;;;;;;18.70;50.30;;;;;;1550474;75;776;-62
2023/11/26 02:59:56;;;;;;;;;;;18.70;50.30;;;;;;1539712;76;783;-62
2023/11/26 03:01:58;;;;;;;;;;;18.70;50.30;;;;;;1555645;75;737;-63
2023/11/26 03:04:00;;;;;;;;;;;18.70;50.30;;;;;;1547380;75;1180;-62
2023/11/26 03:06:03;;;;;;;;;;;18.80;50.30;;;;;;1537249;76;1923;-63
2023/11/26 03:08:21;;;;;;;;;;;18.80;50.20;;;;;;1550812;75;768;-63
2023/11/26 03:14:53;;;;;;;;;;;18.80;50.20;;;;;;1529152;76;1619;-62
2023/11/26 03:16:55;;;;;;;;;;;18.80;50.20;;;;;;1552355;75;1253;-64
2023/11/26 03:18:57;;;;;;;;;;;18.80;50.20;;;;;;1558709;75;1487;-63
2023/11/26 03:20:58;;;;;;;;;;;18.80;50.30;;;;;;1541162;76;697;-62
2023/11/26 03:23:00;;;;;;;;;;;18.80;50.20;;;;;;1551400;75;1140;-63
2023/11/26 03:25:05;;;;;;;;;;;18.80;50.20;;;;;;1561157;75;1910;-63
2023/11/26 03:27:06;;;;;;;;;;;18.80;50.20;;;;;;1559617;75;1680;-63
2023/11/26 03:29:09;;;;;;;;;;;18.80;50.30;;;;;;1556323;75;777;-62
2023/11/26 03:31:11;;;;;;;;;;;18.80;50.20;;;;;;1557373;75;723;-63
2023/11/26 03:33:17;;;;;;;;;;;18.80;50.20;;;;;;1557177;74;1202;-62
2023/11/26 03:35:19;;;;;;;;;;;18.80;50.20;;;;;;1551418;75;711;-63
2023/11/26 03:37:22;;;;;;;;;;;18.80;50.20;;;;;;1555569;75;730;-63
2023/11/26 03:39:24;;;;;;;;;;;18.80;50.20;;;;;;1554093;75;754;-62
2023/11/26 03:41:26;;;;;;;;;;;18.80;50.20;;;;;;1553620;75;673;-63
2023/11/26 03:43:29;;;;;;;;;;;18.80;50.20;;;;;;1560368;74;1120;-64
2023/11/26 03:45:31;;;;;;;;;;;18.80;50.20;;;;;;1531197;76;1929;-65
2023/11/26 03:47:33;;;;;;;;;;;18.80;50.10;;;;;;1557768;75;698;-63
2023/11/26 03:49:37;;;;;;;;;;;18.80;50.20;;;;;;1561755;75;794;-62
2023/11/26 03:51:39;;;;;;;;;;;18.90;50.20;;;;;;1537379;76;767;-64
2023/11/26 03:53:41;;;;;;;;;;;18.90;50.20;;;;;;1566447;74;1181;-64
2023/11/26 03:55:42;;;;;;;;;;;18.80;50.10;;;;;;1558893;75;778;-62
2023/11/26 03:57:44;;;;;;;;;;;18.80;50.10;;;;;;1555803;75;743;-63
2023/11/26 03:59:46;;;;;;;;;;;18.80;50.20;;;;;;1552344;75;813;-62
2023/11/26 04:01:48;;;;;;;;;;;18.80;50.20;;;;;;1556237;75;822;-64
2023/11/26 04:03:50;;;;;;;;;;;18.80;50.20;;;;;;1550886;74;1125;-62
2023/11/26 04:05:52;;;;;;;;;;;18.80;50.20;;;;;;1532171;76;1937;-62
2023/11/26 04:07:54;;;;;;;;;;;18.90;50.20;;;;;;1549857;75;715;-62
2023/11/26 04:09:56;;;;;;;;;;;18.80;50.20;;;;;;1554564;75;746;-62
2023/11/26 04:11:58;;;;;;;;;;;18.80;50.20;;;;;;1565767;75;673;-63
2023/11/26 04:13:59;;;;;;;;;;;18.90;50.20;;;;;;1548605;75;1551;-66
2023/11/26 04:16:03;;;;;;;;;;;18.80;50.10;;;;;;1550051;75;662;-64
2023/11/26 04:18:05;;;;;;;;;;;18.80;50.10;;;;;;1550725;75;769;-62
2023/11/26 04:20:08;;;;;;;;;;;18.80;50.20;;;;;;1537991;76;792;-61
2023/11/26 04:22:10;;;;;;;;;;;18.80;50.20;;;;;;1557123;74;1073;-62
2023/11/26 04:24:15;;;;;;;;;;;18.80;50.20;;;;;;1551959;75;793;-60
2023/11/26 04:26:17;;;;;;;;;;;18.80;50.20;;;;;;1547520;75;1919;-61
2023/11/26 04:28:19;;;;;;;;;;;18.80;50.20;;;;;;1561529;75;662;-60
2023/11/26 04:30:21;;;;;;;;;;;18.80;50.20;;;;;;1553197;75;689;-59
2023/11/26 04:32:23;;;;;;;;;;;18.80;50.20;;;;;;1548877;75;1143;-60
2023/11/26 04:34:25;;;;;;;;;;;18.80;50.20;;;;;;1556918;75;635;-60
2023/11/26 04:36:27;;;;;;;;;;;18.80;50.20;;;;;;1560656;75;765;-60
2023/11/26 04:38:29;;;;;;;;;;;18.80;50.20;;;;;;1547966;76;731;-61
2023/11/26 04:40:31;;;;;;;;;;;18.80;50.20;;;;;;1550428;75;708;-60
2023/11/26 04:42:33;;;;;;;;;;;18.80;50.20;;;;;;1546432;75;1145;-60
2023/11/26 04:44:35;;;;;;;;;;;18.80;50.20;;;;;;1551878;75;703;-62
2023/11/26 04:46:38;;;;;;;;;;;18.80;50.20;;;;;;1550405;75;1929;-61
2023/11/26 04:48:39;;;;;;;;;;;18.80;50.20;;;;;;1543145;76;710;-62
2023/11/26 04:50:41;;;;;;;;;;;18.80;50.20;;;;;;1555317;75;758;-62
2023/11/26 04:52:43;;;;;;;;;;;18.80;50.20;;;;;;1553864;74;1146;-63
2023/11/26 04:54:45;;;;;;;;;;;18.80;50.20;;;;;;1547396;76;805;-62
2023/11/26 04:56:48;;;;;;;;;;;18.80;50.20;;;;;;1569495;75;720;-62
2023/11/26 04:58:50;;;;;;;;;;;18.80;50.20;;;;;;1556627;75;741;-63
2023/11/26 05:00:52;;;;;;;;;;;18.80;50.20;;;;;;1547375;75;672;-65
2023/11/26 05:02:55;;;;;;;;;;;18.80;50.30;;;;;;1550282;74;1177;-62
2023/11/26 05:04:56;;;;;;;;;;;18.90;50.30;;;;;;1532911;76;1929;-62
2023/11/26 05:06:58;;;;;;;;;;;18.80;50.20;;;;;;1557645;75;739;-60
2023/11/26 05:09:00;;;;;;;;;;;18.80;50.20;;;;;;1550514;76;774;-60
2023/11/26 05:11:02;;;;;;;;;;;18.80;50.20;;;;;;1558868;75;1570;-61
2023/11/26 05:13:04;;;;;;;;;;;18.80;50.20;;;;;;1555645;75;1123;-60
2023/11/26 05:15:07;;;;;;;;;;;18.80;50.30;;;;;;1559917;75;811;-60
2023/11/26 05:17:08;;;;;;;;;;;18.80;50.30;;;;;;1551616;75;794;-60
2023/11/26 05:19:15;;;;;;;;;;;18.90;50.30;;;;;;1570677;75;756;-61
2023/11/26 05:21:14;;;;;;;;;;;18.80;50.20;;;;;;1550289;75;1048;-62
2023/11/26 05:23:16;;;;;;;;;;;18.80;50.30;;;;;;1554947;75;1143;-62
2023/11/26 05:25:18;;;;;;;;;;;18.80;50.30;;;;;;1556648;75;1939;-61
2023/11/26 05:27:21;;;;;;;;;;;18.80;50.30;;;;;;1555396;75;626;-60
2023/11/26 05:29:23;;;;;;;;;;;18.80;50.30;;;;;;1533026;76;856;-59
2023/11/26 05:31:25;;;;;;;;;;;18.80;50.20;;;;;;1555199;75;590;-59
2023/11/26 05:33:27;;;;;;;;;;;18.80;50.30;;;;;;1545041;76;1157;-59
2023/11/26 05:35:29;;;;;;;;;;;18.80;50.30;;;;;;1554362;75;732;-60
2023/11/26 05:37:31;;;;;;;;;;;18.80;50.30;;;;;;1550688;75;682;-60
2023/11/26 05:39:33;;;;;;;;;;;18.80;50.40;;;;;;1539680;76;759;-59
2023/11/26 05:41:35;;;;;;;;;;;18.80;50.30;;;;;;1550701;75;748;-62
2023/11/26 05:43:36;;;;;;;;;;;18.80;50.40;;;;;;1556713;74;1090;-62
2023/11/26 05:45:38;;;;;;;;;;;18.70;50.40;;;;;;1564029;75;1941;-59
2023/11/26 05:47:40;;;;;;;;;;;18.80;50.30;;;;;;1544955;76;787;-61
2023/11/26 05:49:42;;;;;;;;;;;18.80;50.20;;;;;;1567996;75;770;-60
2023/11/26 05:51:44;;;;;;;;;;;18.80;50.40;;;;;;1573509;75;729;-55
2023/11/26 05:53:46;;;;;;;;;;;18.80;50.30;;;;;;1540966;76;1112;-60
2023/11/26 05:55:48;;;;;;;;;;;18.80;50.30;;;;;;1546217;75;767;-60
2023/11/26 05:57:50;;;;;;;;;;;18.70;50.40;;;;;;1559238;75;811;-59
2023/11/26 05:59:52;;;;;;;;;;;18.80;50.40;;;;;;1562228;75;704;-59
2023/11/26 06:01:54;;;;;;;;;;;18.70;50.30;;;;;;1563123;75;756;-59
2023/11/26 06:03:56;;;;;;;;;;;18.80;50.30;;;;;;1534086;76;1121;-60
2023/11/26 06:05:58;;;;;;;;;;;18.80;50.30;;;;;;1559732;75;1943;-59
2023/11/26 06:08:00;;;;;;;;;;;18.80;50.40;;;;;;1569700;75;1623;-61
2023/11/26 06:10:01;;;;;;;;;;;18.80;50.30;;;;;;1566966;75;725;-60
2023/11/26 06:12:04;;;;;;;;;;;18.80;50.30;;;;;;1573302;75;1145;-60
2023/11/26 06:14:06;;;;;;;;;;;18.80;50.40;;;;;;1567189;75;795;-59
2023/11/26 06:16:08;;;;;;;;;;;18.80;50.30;;;;;;1566779;75;794;-59
2023/11/26 06:18:10;;;;;;;;;;;18.80;50.40;;;;;;1547544;76;697;-61
2023/11/26 06:20:12;;;;;;;;;;;18.70;50.50;;;;;;1547272;75;744;-59
2023/11/26 06:22:15;;;;;;;;;;;18.80;50.40;;;;;;1560917;74;1153;-60
2023/11/26 06:24:17;;;;;;;;;;;18.80;50.40;;;;;;1555149;75;794;-59
2023/11/26 06:26:20;;;;;;;;;;;18.70;50.40;;;;;;1540451;76;1940;-61
2023/11/26 06:28:22;;;;;;;;;;;18.70;50.50;;;;;;1568865;75;794;-60
2023/11/26 06:30:24;;;;;;;;;;;18.80;50.50;;;;;;1559998;75;704;-59
2023/11/26 06:32:26;;;;;;;;;;;18.70;50.40;;;;;;1536886;76;1131;-60
2023/11/26 06:34:28;;;;;;;;;;;18.80;50.50;;;;;;1556686;75;674;-59
2023/11/26 06:36:30;;;;;;;;;;;18.80;50.50;;;;;;1557604;75;750;-58
2023/11/26 06:38:31;;;;;;;;;;;18.80;50.40;;;;;;1556684;75;735;-59
2023/11/26 06:40:33;;;;;;;;;;;18.80;50.50;;;;;;1531204;76;707;-59
2023/11/26 06:42:35;;;;;;;;;;;18.80;50.40;;;;;;1552553;75;1076;-60
2023/11/26 06:44:37;;;;;;;;;;;18.70;50.40;;;;;;1536361;76;946;-61
2023/11/26 06:46:39;;;;;;;;;;;18.80;50.50;;;;;;1555335;75;1939;-61
2023/11/26 06:48:41;;;;;;;;;;;18.70;50.50;;;;;;1545891;76;705;-61
2023/11/26 06:50:43;;;;;;;;;;;18.70;50.40;;;;;;1559630;75;707;-60
2023/11/26 06:52:45;;;;;;;;;;;18.70;50.50;;;;;;1546489;75;1126;-59
2023/11/26 06:54:46;;;;;;;;;;;18.80;50.40;;;;;;1560456;75;694;-61
2023/11/26 06:56:48;;;;;;;;;;;18.70;50.50;;;;;;1560218;75;723;-59
2023/11/26 06:58:50;;;;;;;;;;;18.70;50.50;;;;;;1551055;75;679;-60
2023/11/26 07:00:53;;;;;;;;;;;18.70;50.50;;;;;;1560173;75;709;-62
2023/11/26 07:02:55;;;;;;;;;;;18.80;50.40;;;;;;1557769;75;1410;-62
2023/11/26 07:04:57;;;;;;;;;;;18.80;50.50;;;;;;1530349;76;639;-60
2023/11/26 07:06:58;;;;;;;;;;;18.70;50.50;;;;;;1562382;75;1954;-62
2023/11/26 07:09:00;;;;;;;;;;;18.70;50.50;;;;;;1530797;76;792;-62
2023/11/26 07:11:02;;;;;;;;;;;18.80;50.50;;;;;;1557050;75;686;-62
2023/11/26 07:13:05;;;;;;;;;;;18.70;50.50;;;;;;1534921;76;1129;-62
2023/11/26 07:15:09;;;;;;;;;;;18.80;50.50;;;;;;1551309;75;691;-62
2023/11/26 07:17:12;;;;;;;;;;;18.70;50.50;;;;;;1531626;76;1664;-62
2023/11/26 07:19:14;;;;;;;;;;;18.70;50.60;;;;;;1555562;75;686;-62
2023/11/26 07:21:15;;;;;;;;;;;18.70;50.50;;;;;;1549806;75;764;-62
2023/11/26 07:23:17;;;;;;;;;;;18.80;50.50;;;;;;1537030;75;1132;-62
2023/11/26 07:25:19;;;;;;;;;;;18.80;50.50;;;;;;1558314;75;781;-63
2023/11/26 07:27:21;;;;;;;;;;;18.70;50.50;;;;;;1548746;75;1920;-63
2023/11/26 07:29:23;;;;;;;;;;;18.80;50.40;;;;;;1548809;75;698;-63
2023/11/26 07:31:27;;;;;;;;;;;18.80;50.40;;;;;;1553041;75;737;-62
2023/11/26 07:33:28;;;;;;;;;;;18.70;50.50;;;;;;1534590;75;1670;-61
2023/11/26 07:35:30;;;;;;;;;;;18.80;50.50;;;;;;1559572;75;762;-61
2023/11/26 07:37:32;;;;;;;;;;;18.70;50.50;;;;;;1546699;75;657;-61
2023/11/26 07:39:34;;;;;;;;;;;18.80;50.40;;;;;;1532586;76;711;-61
2023/11/26 07:41:37;;;;;;;;;;;18.80;50.40;;;;;;1539988;75;752;-63
2023/11/26 07:43:40;;;;;;;;;;;18.80;50.40;;;;;;1557827;74;1082;-60
2023/11/26 07:45:42;;;;;;;;;;;18.80;50.40;;;;;;1561906;75;757;-61
2023/11/26 07:47:44;;;;;;;;;;;18.80;50.30;;;;;;1541201;76;1902;-62
2023/11/26 07:49:46;;;;;;;;;;;18.80;50.30;;;;;;1566208;75;787;-62
2023/11/26 07:51:49;;;;;;;;;;;18.80;50.20;;;;;;1570113;75;785;-62
2023/11/26 07:53:51;;;;;;;;;;;18.80;50.20;;;;;;1565668;75;1105;-62
2023/11/26 07:55:56;;;;;;;;;;;18.80;50.20;;;;;;1560105;75;727;-62
2023/11/26 07:57:58;;;;;;;;;;;18.80;50.30;;;;;;1521135;76;610;-64
2023/11/26 08:00:00;;;;;;;;;;;18.90;50.40;;;;;;1546886;75;1567;-63
2023/11/26 08:02:04;;;;;;;;;;;18.90;50.40;;;;;;1536188;76;782;-63
2023/11/26 08:04:06;;;;;;;;;;;18.80;50.20;;;;;;1553619;75;1772;-63
2023/11/26 08:06:09;;;;;;;;;;;18.80;50.30;;;;;;1556545;75;1907;-63
2023/11/26 08:08:13;;;;;;;;;;;18.90;50.30;;;;;;1548850;75;1928;-64
2023/11/26 08:10:26;;;;;;;;;;;18.80;50.20;;;;;;1564131;75;817;-62
2023/11/26 08:12:28;;;;;;;;;;;18.80;50.20;;;;;;1547604;75;1852;-62
2023/11/26 08:14:28;;;;;;;;;;;18.90;50.30;;;;;;1525388;76;1496;-62
2023/11/26 08:16:30;;;;;;;;;;;18.90;50.30;;;;;;1553956;75;747;-62
2023/11/26 08:18:32;;;;;;;;;;;18.80;50.20;;;;;;1538646;76;681;-62
2023/11/26 08:20:33;;;;;;;;;;;18.90;50.30;;;;;;1551073;75;716;-63
2023/11/26 08:22:40;;;;;;;;;;;18.90;50.30;;;;;;1536706;75;1147;-64
2023/11/26 08:24:46;;;;;;;;;;;18.80;50.20;;;;;;1547118;75;1683;-63
2023/11/26 08:26:48;;;;;;;;;;;18.90;50.30;;;;;;1547099;76;1927;-60
2023/11/26 08:28:49;;;;;;;;;;;18.90;50.30;;;;;;1530023;76;678;-62
2023/11/26 08:30:51;;;;;;;;;;;18.80;50.20;;;;;;1577437;75;748;-62
2023/11/26 08:32:55;;;;;;;;;;;18.90;50.30;;;;;;1538363;75;1119;-62
2023/11/26 08:34:58;;;;;;;;;;;18.80;50.20;;;;;;1557602;75;816;-62
2023/11/26 08:37:04;;;;;;;;;;;18.80;50.20;;;;;;1530151;76;661;-63
2023/11/26 08:39:04;;;;;;;;;;;18.90;50.30;;;;;;1543362;75;1567;-62
2023/11/26 08:41:08;;;;;;;;;;;18.90;50.20;;;;;;1542489;75;756;-63
2023/11/26 08:43:13;;;;;;;;;;;18.80;50.20;;;;;;1556209;74;2066;-62
2023/11/26 08:45:14;;;;;;;;;;;18.90;50.20;;;;;;1542737;75;1557;-63
2023/11/26 08:47:20;;;;;;;;;;;18.80;50.20;;;;;;1560041;75;1935;-62
2023/11/26 08:49:22;;;;;;;;;;;18.90;50.30;;;;;;1549127;75;2062;-62
2023/11/26 08:51:25;;;;;;;;;;;18.80;50.20;;;;;;1556528;75;1700;-62
2023/11/26 08:53:27;;;;;;;;;;;18.80;50.20;;;;;;1550354;75;1161;-63
2023/11/26 08:55:28;;;;;;;;;;;18.80;50.20;;;;;;1551297;75;1468;-63
2023/11/26 08:57:33;;;;;;;;;;;18.90;50.40;;;;;;1549818;76;734;-62
2023/11/26 08:59:35;;;;;;;;;;;18.80;50.20;;;;;;1553004;75;765;-64
2023/11/26 09:01:40;;;;;;;;;;;18.80;50.20;;;;;;1551260;75;715;-62
2023/11/26 09:03:42;;;;;;;;;;;18.80;50.20;;;;;;1536415;75;1113;-63
2023/11/26 09:05:44;;;;;;;;;;;18.90;50.40;;;;;;1539529;75;781;-62
2023/11/26 09:07:46;;;;;;;;;;;18.80;50.30;;;;;;1545206;75;1948;-60
2023/11/26 09:09:47;;;;;;;;;;;18.90;50.30;;;;;;1547503;75;1510;-61
2023/11/26 09:11:49;;;;;;;;;;;18.80;50.20;;;;;;1549947;75;794;-62
2023/11/26 09:13:51;;;;;;;;;;;18.80;50.20;;;;;;1559153;75;1164;-63
2023/11/26 09:15:54;;;;;;;;;;;18.90;50.40;;;;;;1557064;75;669;-62
2023/11/26 09:17:56;;;;;;;;;;;18.90;50.40;;;;;;1557740;75;688;-62
2023/11/26 09:19:58;;;;;;;;;;;18.90;50.40;;;;;;1546788;76;675;-62
2023/11/26 09:22:02;;;;;;;;;;;18.90;50.30;;;;;;1554381;75;761;-63
2023/11/26 09:24:04;;;;;;;;;;;18.80;50.30;;;;;;1542165;76;1847;-62
2023/11/26 09:26:06;;;;;;;;;;;18.80;50.30;;;;;;1551108;75;647;-62
2023/11/26 09:28:08;;;;;;;;;;;18.80;50.30;;;;;;1557309;75;1939;-62
2023/11/26 09:30:10;;;;;;;;;;;18.90;50.50;;;;;;1546025;75;723;-62
2023/11/26 09:32:12;;;;;;;;;;;18.80;50.40;;;;;;1543647;76;1145;-63
2023/11/26 09:34:14;;;;;;;;;;;18.80;50.40;;;;;;1550724;75;757;-59
2023/11/26 09:36:16;;;;;;;;;;;18.80;50.30;;;;;;1558588;75;742;-60
2023/11/26 09:38:18;;;;;;;;;;;18.80;50.30;;;;;;1555680;75;1463;-61
2023/11/26 09:40:20;;;;;;;;;;;18.80;50.30;;;;;;1535293;76;746;-61
2023/11/26 09:42:22;;;;;;;;;;;18.80;50.40;;;;;;1566989;75;1128;-62
2023/11/26 09:44:24;;;;;;;;;;;18.90;50.40;;;;;;1522662;76;721;-64
2023/11/26 09:46:27;;;;;;;;;;;18.80;50.30;;;;;;1554705;75;762;-59
2023/11/26 09:48:29;;;;;;;;;;;18.80;50.30;;;;;;1532691;76;1927;-59
2023/11/26 09:50:31;;;;;;;;;;;18.80;50.30;;;;;;1558696;75;650;-59
2023/11/26 09:52:33;;;;;;;;;;;18.80;50.30;;;;;;1538323;75;1446;-61
2023/11/26 09:54:35;;;;;;;;;;;18.80;50.40;;;;;;1548988;75;756;-60
2023/11/26 09:56:37;;;;;;;;;;;18.80;50.40;;;;;;1554991;75;712;-59
2023/11/26 09:58:39;;;;;;;;;;;18.80;50.30;;;;;;1542057;75;718;-60
2023/11/26 10:00:42;;;;;;;;;;;18.80;50.40;;;;;;1557939;75;749;-60
2023/11/26 10:02:44;;;;;;;;;;;18.80;50.40;;;;;;1556045;75;1151;-61
2023/11/26 10:04:47;;;;;;;;;;;18.80;50.40;;;;;;1529750;76;690;-59
2023/11/26 10:06:53;;;;;;;;;;;18.80;50.40;;;;;;1546989;75;1918;-60
2023/11/26 10:08:55;;;;;;;;;;;18.70;44.40;;;;;;1543032;75;679;-59
2023/11/26 10:10:57;;;;;;;;;;;18.60;43.80;;;;;;1550289;75;717;-60
2023/11/26 10:12:59;;;;;;;;;;;18.50;42.40;;;;;;1548913;75;1164;-60
2023/11/26 10:15:09;;;;;;;;;;;18.50;42.80;;;;;;1549487;75;626;-59
2023/11/26 10:17:09;;;;;;;;;;;18.40;42.10;;;;;;1552927;75;1317;-59
2023/11/26 10:19:24;;;;;;;;;;;18.30;42.10;;;;;;1536907;75;693;-61
2023/11/26 10:21:28;;;;;;;;;;;18.30;43.40;;;;;;1558415;75;1160;-62
2023/11/26 10:23:36;;;;;;;;;;;18.30;45.70;;;;;;1560041;74;1134;-64
2023/11/26 10:25:34;;;;;;;;;;;18.30;47.30;;;;;;1544830;75;1521;-62
2023/11/26 10:27:36;;;;;;;;;;;18.40;47.70;;;;;;1543417;75;1912;-62
2023/11/26 10:29:39;;;;;;;;;;;18.40;48.20;;;;;;1549334;75;686;-63
2023/11/26 10:32:03;;;;;;;;;;;18.40;48.60;;;;;;1543391;75;1011;-60
2023/11/26 10:34:09;;;;;;;;;;;18.50;48.90;;;;;;1543879;75;1746;-60
2023/11/26 10:36:11;;;;;;;;;;;18.50;49.00;;;;;;1550088;75;718;-60
2023/11/26 10:38:13;;;;;;;;;;;18.60;49.10;;;;;;1547065;75;732;-61
2023/11/26 10:40:15;;;;;;;;;;;18.60;49.10;;;;;;1555647;75;769;-59
2023/11/26 10:42:17;;;;;;;;;;;18.60;49.20;;;;;;1560959;74;1128;-60
2023/11/26 10:44:19;;;;;;;;;;;18.60;49.20;;;;;;1556445;75;745;-59
2023/11/26 10:46:21;;;;;;;;;;;18.70;49.40;;;;;;1555167;75;751;-59
2023/11/26 10:48:23;;;;;;;;;;;18.50;49.30;;;;;;1557997;75;1931;-59
2023/11/26 10:50:25;;;;;;;;;;;18.70;49.50;;;;;;1540632;76;792;-59
2023/11/26 10:52:41;;;;;;;;;;;18.70;49.50;;;;;;1553215;75;1110;-61
2023/11/26 10:54:56;;;;;;;;;;;18.70;49.40;;;;;;1548520;75;1031;-60
2023/11/26 10:57:00;;;;;;;;;;;18.70;49.50;;;;;;1561465;75;685;-60
2023/11/26 10:59:02;;;;;;;;;;;18.70;49.60;;;;;;1546737;76;773;-59
2023/11/26 11:01:04;;;;;;;;;;;18.60;49.40;;;;;;1562320;75;744;-58
2023/11/26 11:03:06;;;;;;;;;;;18.70;49.60;;;;;;1559340;75;1556;-58
2023/11/26 11:05:09;;;;;;;;;;;18.70;49.60;;;;;;1557663;75;744;-59
2023/11/26 11:07:11;;;;;;;;;;;18.70;49.60;;;;;;1550231;75;1919;-59
2023/11/26 11:09:14;;;;;;;;;;;18.70;49.70;;;;;;1547756;75;628;-57
2023/11/26 11:11:26;;;;;;;;;;;18.70;49.60;;;;;;1560800;75;1924;-59
2023/11/26 11:13:28;;;;;;;;;;;18.70;49.60;;;;;;1549974;75;1119;-59
2023/11/26 11:15:30;;;;;;;;;;;18.70;49.60;;;;;;1543901;76;768;-59
2023/11/26 11:17:34;;;;;;;;;;;18.70;49.70;;;;;;1555104;75;1563;-58
2023/11/26 11:19:52;;;;;;;;;;;18.70;49.60;;;;;;1555145;75;665;-59
2023/11/26 11:21:54;;;;;;;;;;;18.70;49.70;;;;;;1553111;75;667;-59
2023/11/26 11:23:56;;;;;;;;;;;18.70;49.70;;;;;;1559750;75;1040;-58
2023/11/26 11:25:58;;;;;;;;;;;18.70;49.70;;;;;;1536108;76;652;-59
2023/11/26 11:28:00;;;;;;;;;;;18.70;49.70;;;;;;1557886;75;1917;-59
2023/11/26 11:30:02;;;;;;;;;;;18.70;49.70;;;;;;1544796;76;1269;-58
2023/11/26 11:32:04;;;;;;;;;;;18.70;49.70;;;;;;1551256;74;1071;-59
2023/11/26 11:34:09;;;;;;;;;;;18.70;49.70;;;;;;1543715;76;680;-60
2023/11/26 11:36:11;;;;;;;;;;;18.70;49.60;;;;;;1556362;75;945;-57
2023/11/26 11:38:13;;;;;;;;;;;18.70;49.70;;;;;;1541904;76;694;-61
2023/11/26 11:40:15;;;;;;;;;;;18.70;49.70;;;;;;1565052;75;722;-58
2023/11/26 11:42:21;;;;;;;;;;;18.70;49.70;;;;;;1546298;75;1096;-59
2023/11/26 11:44:28;;;;;;;;;;;18.70;49.70;;;;;;1534235;75;1312;-58
2023/11/26 11:46:32;;;;;;;;;;;18.70;49.70;;;;;;1559713;75;671;-59
2023/11/26 11:48:45;;;;;;;;;;;18.70;49.70;;;;;;1548477;75;1937;-59
2023/11/26 11:50:47;;;;;;;;;;;18.70;49.70;;;;;;1532657;76;866;-58
2023/11/26 11:52:55;;;;;;;;;;;19.00;49.90;;;;;;1551382;75;1086;-60
2023/11/26 11:54:58;;;;;;;;;;;18.70;49.80;;;;;;1558840;75;675;-59
2023/11/26 11:57:00;;;;;;;;;;;18.70;49.80;;;;;;1553261;75;802;-59
2023/11/26 11:59:02;;;;;;;;;;;18.70;49.80;;;;;;1543995;76;1570;-60
2023/11/26 12:01:04;;;;;;;;;;;18.70;49.80;;;;;;1555736;75;727;-59
2023/11/26 12:03:06;;;;;;;;;;;18.70;49.90;;;;;;1543420;76;1125;-59
2023/11/26 12:05:25;;;;;;;;;;;18.70;49.80;;;;;;1529246;76;693;-60
2023/11/26 12:07:31;;;;;;;;;;;18.70;49.90;;;;;;1558452;75;1933;-59
2023/11/26 12:09:39;;;;;;;;;;;18.70;49.80;;;;;;1561183;75;792;-60
2023/11/26 12:11:44;;;;;;;;;;;18.70;49.80;;;;;;1559241;75;694;-59
2023/11/26 12:13:46;;;;;;;;;;;18.70;49.80;;;;;;1546598;75;1652;-60
2023/11/26 12:15:54;;;;;;;;;;;18.70;49.80;;;;;;1552820;75;678;-60